sensor_id;sensor_type;location;lat;lon;timestamp;temperature;humidity
52869;DHT22;39100;53.480;6.158;2023-04-01T00:00:52;10.50;99.90
52869;DHT22;39100;53.480;6.158;2023-04-01T00:03:18;10.50;99.90
52869;DHT22;39100;53.480;6.158;2023-04-01T00:05:45;10.50;99.90
52869;DHT22;39100;53.480;6.158;2023-04-01T00:08:11;11.40;99.90
52869;DHT22;39100;53.480;6.158;2023-04-01T00:10:36;10.50;99.90
52869;DHT22;39100;53.480;6.158;2023-04-01T00:13:02;10.40;99.90
52869;DHT22;39100;53.480;6.158;2023-04-01T00:15:27;10.40;99.90
52869;DHT22;39100;53.480;6.158;2023-04-01T00:17:53;10.40;99.90
52869;DHT22;39100;53.480;6.158;2023-04-01T00:20:19;10.40;99.90
52869;DHT22;39100;53.480;6.158;2023-04-01T00:22:45;10.40;99.90
52869;DHT22;39100;53.480;6.158;2023-04-01T00:25:10;10.40;99.90
52869;DHT22;39100;53.480;6.158;2023-04-01T00:27:36;10.40;99.90
52869;DHT22;39100;53.480;6.158;2023-04-01T00:30:02;10.40;99.90
52869;DHT22;39100;53.480;6.158;2023-04-01T00:32:27;10.40;99.90
52869;DHT22;39100;53.480;6.158;2023-04-01T00:34:53;10.40;99.90
52869;DHT22;39100;53.480;6.158;2023-04-01T00:37:19;10.40;99.90
52869;DHT22;39100;53.480;6.158;2023-04-01T00:39:44;10.50;99.90
52869;DHT22;39100;53.480;6.158;2023-04-01T00:42:11;10.40;99.90
52869;DHT22;39100;53.480;6.158;2023-04-01T00:44:37;10.30;99.90
52869;DHT22;39100;53.480;6.158;2023-04-01T00:47:03;10.30;99.90
52869;DHT22;39100;53.480;6.158;2023-04-01T00:49:32;10.30;99.90
52869;DHT22;39100;53.480;6.158;2023-04-01T00:52:00;10.40;99.90
52869;DHT22;39100;53.480;6.158;2023-04-01T00:54:27;10.30;99.90
52869;DHT22;39100;53.480;6.158;2023-04-01T00:56:55;10.30;99.90
52869;DHT22;39100;53.480;6.158;2023-04-01T00:59:25;10.40;99.90
52869;DHT22;39100;53.480;6.158;2023-04-01T01:01:51;10.30;99.90
52869;DHT22;39100;53.480;6.158;2023-04-01T01:04:23;10.30;99.90
52869;DHT22;39100;53.480;6.158;2023-04-01T01:06:52;10.30;99.90
52869;DHT22;39100;53.480;6.158;2023-04-01T01:09:29;10.30;99.90
52869;DHT22;39100;53.480;6.158;2023-04-01T01:14:26;10.30;99.90
52869;DHT22;39100;53.480;6.158;2023-04-01T01:17:00;10.30;99.90
52869;DHT22;39100;53.480;6.158;2023-04-01T01:22:00;10.20;99.90
52869;DHT22;39100;53.480;6.158;2023-04-01T01:25:06;10.20;99.90
52869;DHT22;39100;53.480;6.158;2023-04-01T01:27:20;10.20;99.90
52869;DHT22;39100;53.480;6.158;2023-04-01T01:37:31;10.30;99.90
52869;DHT22;39100;53.480;6.158;2023-04-01T01:40:02;10.20;99.90
52869;DHT22;39100;53.480;6.158;2023-04-01T01:42:28;10.30;99.90
52869;DHT22;39100;53.480;6.158;2023-04-01T01:44:55;10.20;99.90
52869;DHT22;39100;53.480;6.158;2023-04-01T01:47:22;10.20;99.90
52869;DHT22;39100;53.480;6.158;2023-04-01T01:49:48;10.20;99.90
52869;DHT22;39100;53.480;6.158;2023-04-01T01:52:16;10.20;99.90
52869;DHT22;39100;53.480;6.158;2023-04-01T01:54:52;10.20;99.90
52869;DHT22;39100;53.480;6.158;2023-04-01T01:57:20;10.20;99.90
52869;DHT22;39100;53.480;6.158;2023-04-01T01:59:46;10.20;99.90
52869;DHT22;39100;53.480;6.158;2023-04-01T02:02:13;10.20;99.90
52869;DHT22;39100;53.480;6.158;2023-04-01T02:04:40;10.30;99.90
52869;DHT22;39100;53.480;6.158;2023-04-01T02:07:19;10.20;99.90
52869;DHT22;39100;53.480;6.158;2023-04-01T02:09:46;10.20;99.90
52869;DHT22;39100;53.480;6.158;2023-04-01T02:12:13;10.20;99.90
52869;DHT22;39100;53.480;6.158;2023-04-01T02:14:45;10.20;99.90
52869;DHT22;39100;53.480;6.158;2023-04-01T02:17:17;10.20;99.90
52869;DHT22;39100;53.480;6.158;2023-04-01T02:19:48;10.10;99.90
52869;DHT22;39100;53.480;6.158;2023-04-01T02:22:16;10.10;99.90
52869;DHT22;39100;53.480;6.158;2023-04-01T02:24:43;10.10;99.90
52869;DHT22;39100;53.480;6.158;2023-04-01T02:27:11;10.10;99.90
52869;DHT22;39100;53.480;6.158;2023-04-01T02:29:37;10.20;99.90
52869;DHT22;39100;53.480;6.158;2023-04-01T02:32:03;10.10;99.90
52869;DHT22;39100;53.480;6.158;2023-04-01T02:34:30;10.10;99.90
52869;DHT22;39100;53.480;6.158;2023-04-01T02:36:55;10.10;99.90
52869;DHT22;39100;53.480;6.158;2023-04-01T02:39:22;10.00;99.90
52869;DHT22;39100;53.480;6.158;2023-04-01T02:41:48;10.10;99.90
52869;DHT22;39100;53.480;6.158;2023-04-01T02:44:14;10.00;99.90
52869;DHT22;39100;53.480;6.158;2023-04-01T02:46:40;10.00;99.90
52869;DHT22;39100;53.480;6.158;2023-04-01T02:49:06;10.00;99.90
52869;DHT22;39100;53.480;6.158;2023-04-01T02:51:31;10.00;99.90
52869;DHT22;39100;53.480;6.158;2023-04-01T02:53:57;10.00;99.90
52869;DHT22;39100;53.480;6.158;2023-04-01T02:56:22;10.00;99.90
52869;DHT22;39100;53.480;6.158;2023-04-01T02:58:48;10.00;99.90
52869;DHT22;39100;53.480;6.158;2023-04-01T03:01:13;10.00;99.90
52869;DHT22;39100;53.480;6.158;2023-04-01T03:03:39;10.00;99.90
52869;DHT22;39100;53.480;6.158;2023-04-01T03:06:05;10.00;99.90
52869;DHT22;39100;53.480;6.158;2023-04-01T03:08:31;9.90;99.90
52869;DHT22;39100;53.480;6.158;2023-04-01T03:10:56;10.00;99.90
52869;DHT22;39100;53.480;6.158;2023-04-01T03:13:22;9.90;99.90
52869;DHT22;39100;53.480;6.158;2023-04-01T03:15:47;10.00;99.90
52869;DHT22;39100;53.480;6.158;2023-04-01T03:18:13;9.90;99.90
52869;DHT22;39100;53.480;6.158;2023-04-01T03:20:38;9.90;99.90
52869;DHT22;39100;53.480;6.158;2023-04-01T03:23:04;9.90;99.90
52869;DHT22;39100;53.480;6.158;2023-04-01T03:25:30;9.90;99.90
52869;DHT22;39100;53.480;6.158;2023-04-01T03:27:55;9.90;99.90
52869;DHT22;39100;53.480;6.158;2023-04-01T03:30:21;9.90;99.90
52869;DHT22;39100;53.480;6.158;2023-04-01T03:32:46;9.90;99.90
52869;DHT22;39100;53.480;6.158;2023-04-01T03:35:12;9.80;99.90
52869;DHT22;39100;53.480;6.158;2023-04-01T03:37:37;9.80;99.90
52869;DHT22;39100;53.480;6.158;2023-04-01T03:40:03;9.80;99.90
52869;DHT22;39100;53.480;6.158;2023-04-01T03:42:29;9.80;99.90
52869;DHT22;39100;53.480;6.158;2023-04-01T03:44:56;9.80;99.90
52869;DHT22;39100;53.480;6.158;2023-04-01T03:47:22;9.80;99.90
52869;DHT22;39100;53.480;6.158;2023-04-01T03:49:47;9.80;99.90
52869;DHT22;39100;53.480;6.158;2023-04-01T03:52:12;9.80;99.90
52869;DHT22;39100;53.480;6.158;2023-04-01T03:54:38;9.80;99.90
52869;DHT22;39100;53.480;6.158;2023-04-01T03:57:03;9.80;99.90
52869;DHT22;39100;53.480;6.158;2023-04-01T03:59:29;9.70;99.90
52869;DHT22;39100;53.480;6.158;2023-04-01T04:01:54;9.70;99.90
52869;DHT22;39100;53.480;6.158;2023-04-01T04:04:20;9.70;99.90
52869;DHT22;39100;53.480;6.158;2023-04-01T04:06:45;9.80;99.90
52869;DHT22;39100;53.480;6.158;2023-04-01T04:09:11;9.80;99.90
52869;DHT22;39100;53.480;6.158;2023-04-01T04:11:36;10.30;99.90
52869;DHT22;39100;53.480;6.158;2023-04-01T04:14:02;9.70;99.90
52869;DHT22;39100;53.480;6.158;2023-04-01T04:16:27;9.70;99.90
52869;DHT22;39100;53.480;6.158;2023-04-01T04:18:53;9.70;99.90
52869;DHT22;39100;53.480;6.158;2023-04-01T04:21:18;9.70;99.90
52869;DHT22;39100;53.480;6.158;2023-04-01T04:23:44;9.70;99.90
52869;DHT22;39100;53.480;6.158;2023-04-01T04:26:10;9.80;99.90
52869;DHT22;39100;53.480;6.158;2023-04-01T04:28:36;9.70;99.90
52869;DHT22;39100;53.480;6.158;2023-04-01T04:31:02;9.70;99.90
52869;DHT22;39100;53.480;6.158;2023-04-01T04:33:29;9.70;99.90
52869;DHT22;39100;53.480;6.158;2023-04-01T04:35:55;9.70;99.90
52869;DHT22;39100;53.480;6.158;2023-04-01T04:38:21;9.70;99.90
52869;DHT22;39100;53.480;6.158;2023-04-01T04:40:47;9.70;99.90
52869;DHT22;39100;53.480;6.158;2023-04-01T04:43:13;9.60;99.90
52869;DHT22;39100;53.480;6.158;2023-04-01T04:45:38;9.60;99.90
52869;DHT22;39100;53.480;6.158;2023-04-01T04:48:04;9.60;99.90
52869;DHT22;39100;53.480;6.158;2023-04-01T04:50:29;9.60;99.90
52869;DHT22;39100;53.480;6.158;2023-04-01T04:52:55;9.60;99.90
52869;DHT22;39100;53.480;6.158;2023-04-01T04:55:21;9.60;99.90
52869;DHT22;39100;53.480;6.158;2023-04-01T04:57:46;9.60;99.90
52869;DHT22;39100;53.480;6.158;2023-04-01T05:00:12;9.60;99.90
52869;DHT22;39100;53.480;6.158;2023-04-01T05:02:37;9.60;99.90
52869;DHT22;39100;53.480;6.158;2023-04-01T05:05:03;9.60;99.90
52869;DHT22;39100;53.480;6.158;2023-04-01T05:07:29;9.60;99.90
52869;DHT22;39100;53.480;6.158;2023-04-01T05:09:55;9.60;99.90
52869;DHT22;39100;53.480;6.158;2023-04-01T05:12:20;9.60;99.90
52869;DHT22;39100;53.480;6.158;2023-04-01T05:14:46;9.60;99.90
52869;DHT22;39100;53.480;6.158;2023-04-01T05:17:12;9.60;99.90
52869;DHT22;39100;53.480;6.158;2023-04-01T05:19:38;9.60;99.90
52869;DHT22;39100;53.480;6.158;2023-04-01T05:22:04;9.50;99.90
52869;DHT22;39100;53.480;6.158;2023-04-01T05:24:29;9.60;99.90
52869;DHT22;39100;53.480;6.158;2023-04-01T05:26:55;9.50;99.90
52869;DHT22;39100;53.480;6.158;2023-04-01T05:29:23;9.80;99.90
52869;DHT22;39100;53.480;6.158;2023-04-01T05:31:48;9.50;99.90
52869;DHT22;39100;53.480;6.158;2023-04-01T05:34:14;9.50;99.90
52869;DHT22;39100;53.480;6.158;2023-04-01T05:36:39;9.50;99.90
52869;DHT22;39100;53.480;6.158;2023-04-01T05:39:07;9.90;99.90
52869;DHT22;39100;53.480;6.158;2023-04-01T05:41:34;9.70;99.90
52869;DHT22;39100;53.480;6.158;2023-04-01T05:44:00;9.50;99.90
52869;DHT22;39100;53.480;6.158;2023-04-01T05:46:25;9.50;99.90
52869;DHT22;39100;53.480;6.158;2023-04-01T05:48:51;9.50;99.90
52869;DHT22;39100;53.480;6.158;2023-04-01T05:51:16;9.50;99.90
52869;DHT22;39100;53.480;6.158;2023-04-01T05:53:42;9.50;99.90
52869;DHT22;39100;53.480;6.158;2023-04-01T05:56:08;9.50;99.90
52869;DHT22;39100;53.480;6.158;2023-04-01T05:58:35;9.50;99.90
52869;DHT22;39100;53.480;6.158;2023-04-01T06:01:01;9.50;99.90
52869;DHT22;39100;53.480;6.158;2023-04-01T06:03:27;9.50;99.90
52869;DHT22;39100;53.480;6.158;2023-04-01T06:05:53;9.40;99.90
52869;DHT22;39100;53.480;6.158;2023-04-01T06:08:18;9.50;99.90
52869;DHT22;39100;53.480;6.158;2023-04-01T06:13:28;9.50;99.90
52869;DHT22;39100;53.480;6.158;2023-04-01T06:21:45;9.50;99.90
52869;DHT22;39100;53.480;6.158;2023-04-01T06:24:13;9.50;99.90
52869;DHT22;39100;53.480;6.158;2023-04-01T06:26:48;9.50;99.90
52869;DHT22;39100;53.480;6.158;2023-04-01T06:34:23;9.30;99.90
52869;DHT22;39100;53.480;6.158;2023-04-01T06:37:07;9.30;99.90
52869;DHT22;39100;53.480;6.158;2023-04-01T06:39:46;9.30;99.90
52869;DHT22;39100;53.480;6.158;2023-04-01T06:42:22;9.30;99.90
52869;DHT22;39100;53.480;6.158;2023-04-01T06:44:54;9.20;99.90
52869;DHT22;39100;53.480;6.158;2023-04-01T06:52:42;9.40;99.90
52869;DHT22;39100;53.480;6.158;2023-04-01T06:57:51;9.50;99.90
52869;DHT22;39100;53.480;6.158;2023-04-01T07:02:48;9.70;99.90
52869;DHT22;39100;53.480;6.158;2023-04-01T07:05:18;9.70;99.90
52869;DHT22;39100;53.480;6.158;2023-04-01T07:07:46;9.70;99.90
52869;DHT22;39100;53.480;6.158;2023-04-01T07:10:35;9.70;99.90
52869;DHT22;39100;53.480;6.158;2023-04-01T07:13:00;9.70;99.90
52869;DHT22;39100;53.480;6.158;2023-04-01T07:15:28;9.90;99.90
52869;DHT22;39100;53.480;6.158;2023-04-01T07:18:08;9.80;99.90
52869;DHT22;39100;53.480;6.158;2023-04-01T07:20:36;9.70;99.90
52869;DHT22;39100;53.480;6.158;2023-04-01T07:23:02;9.60;99.90
52869;DHT22;39100;53.480;6.158;2023-04-01T07:25:36;9.50;99.90
52869;DHT22;39100;53.480;6.158;2023-04-01T07:28:04;9.40;99.90
52869;DHT22;39100;53.480;6.158;2023-04-01T07:30:33;9.40;99.90
52869;DHT22;39100;53.480;6.158;2023-04-01T07:33:24;9.40;99.90
52869;DHT22;39100;53.480;6.158;2023-04-01T07:38:59;9.30;99.90
52869;DHT22;39100;53.480;6.158;2023-04-01T07:41:30;9.20;99.90
52869;DHT22;39100;53.480;6.158;2023-04-01T07:44:06;9.10;99.90
52869;DHT22;39100;53.480;6.158;2023-04-01T07:49:03;9.10;99.90
52869;DHT22;39100;53.480;6.158;2023-04-01T07:52:16;9.10;99.90
52869;DHT22;39100;53.480;6.158;2023-04-01T07:54:26;9.10;99.90
52869;DHT22;39100;53.480;6.158;2023-04-01T08:07:13;9.10;99.90
52869;DHT22;39100;53.480;6.158;2023-04-01T08:12:21;9.00;99.90
52869;DHT22;39100;53.480;6.158;2023-04-01T08:17:45;9.10;99.90
52869;DHT22;39100;53.480;6.158;2023-04-01T08:20:18;9.20;99.90
52869;DHT22;39100;53.480;6.158;2023-04-01T08:22:53;9.20;99.90
52869;DHT22;39100;53.480;6.158;2023-04-01T08:25:25;9.20;99.90
52869;DHT22;39100;53.480;6.158;2023-04-01T08:30:35;9.30;99.90
52869;DHT22;39100;53.480;6.158;2023-04-01T08:33:06;9.50;99.90
52869;DHT22;39100;53.480;6.158;2023-04-01T08:38:11;9.50;99.90
52869;DHT22;39100;53.480;6.158;2023-04-01T08:46:03;9.60;99.90
52869;DHT22;39100;53.480;6.158;2023-04-01T08:51:09;9.50;99.90
52869;DHT22;39100;53.480;6.158;2023-04-01T08:53:57;9.50;99.90
52869;DHT22;39100;53.480;6.158;2023-04-01T09:04:05;9.50;99.90
52869;DHT22;39100;53.480;6.158;2023-04-01T09:30:32;9.40;99.90
52869;DHT22;39100;53.480;6.158;2023-04-01T09:40:54;9.40;99.90
52869;DHT22;39100;53.480;6.158;2023-04-01T09:43:25;9.40;99.90
52869;DHT22;39100;53.480;6.158;2023-04-01T09:45:58;9.30;99.90
52869;DHT22;39100;53.480;6.158;2023-04-01T09:51:21;9.20;99.90
52869;DHT22;39100;53.480;6.158;2023-04-01T10:35:14;9.30;99.90
52869;DHT22;39100;53.480;6.158;2023-04-01T10:50:25;9.40;99.90
52869;DHT22;39100;53.480;6.158;2023-04-01T10:53:12;9.40;99.90
52869;DHT22;39100;53.480;6.158;2023-04-01T11:16:56;9.50;99.90
52869;DHT22;39100;53.480;6.158;2023-04-01T11:19:41;9.60;99.90
52869;DHT22;39100;53.480;6.158;2023-04-01T11:22:18;9.60;99.90
52869;DHT22;39100;53.480;6.158;2023-04-01T11:32:31;9.70;99.90
52869;DHT22;39100;53.480;6.158;2023-04-01T11:35:09;9.60;99.90
52869;DHT22;39100;53.480;6.158;2023-04-01T11:37:50;9.60;99.90
52869;DHT22;39100;53.480;6.158;2023-04-01T11:40:29;9.60;99.90
52869;DHT22;39100;53.480;6.158;2023-04-01T11:43:15;9.70;99.90
52869;DHT22;39100;53.480;6.158;2023-04-01T11:45:46;9.70;99.90
52869;DHT22;39100;53.480;6.158;2023-04-01T11:58:42;9.90;99.90
52869;DHT22;39100;53.480;6.158;2023-04-01T12:01:33;9.90;99.90
52869;DHT22;39100;53.480;6.158;2023-04-01T12:06:43;10.00;99.90
52869;DHT22;39100;53.480;6.158;2023-04-01T12:09:18;10.10;99.90
52869;DHT22;39100;53.480;6.158;2023-04-01T12:14:30;10.00;99.90
52869;DHT22;39100;53.480;6.158;2023-04-01T12:24:22;9.80;99.90
52869;DHT22;39100;53.480;6.158;2023-04-01T12:29:49;9.80;99.90
52869;DHT22;39100;53.480;6.158;2023-04-01T12:37:17;10.00;99.90
52869;DHT22;39100;53.480;6.158;2023-04-01T12:39:58;9.90;99.90
52869;DHT22;39100;53.480;6.158;2023-04-01T12:42:38;9.80;99.90
52869;DHT22;39100;53.480;6.158;2023-04-01T12:55:36;9.50;99.90
52869;DHT22;39100;53.480;6.158;2023-04-01T12:58:06;9.40;99.90
52869;DHT22;39100;53.480;6.158;2023-04-01T13:00:44;9.40;99.90
52869;DHT22;39100;53.480;6.158;2023-04-01T13:03:28;9.40;99.90
52869;DHT22;39100;53.480;6.158;2023-04-01T13:11:13;9.30;99.90
52869;DHT22;39100;53.480;6.158;2023-04-01T13:14:00;9.30;99.90
52869;DHT22;39100;53.480;6.158;2023-04-01T13:19:34;9.20;99.90
52869;DHT22;39100;53.480;6.158;2023-04-01T13:25:22;9.10;99.90
52869;DHT22;39100;53.480;6.158;2023-04-01T13:27:53;9.00;99.90
52869;DHT22;39100;53.480;6.158;2023-04-01T13:38:01;9.00;99.90
52869;DHT22;39100;53.480;6.158;2023-04-01T13:40:33;8.90;99.90
52869;DHT22;39100;53.480;6.158;2023-04-01T13:43:04;9.00;99.90
52869;DHT22;39100;53.480;6.158;2023-04-01T13:45:54;8.90;99.90
52869;DHT22;39100;53.480;6.158;2023-04-01T13:56:41;8.70;99.90
52869;DHT22;39100;53.480;6.158;2023-04-01T14:01:46;8.70;99.90
52869;DHT22;39100;53.480;6.158;2023-04-01T14:07:00;8.60;99.90
52869;DHT22;39100;53.480;6.158;2023-04-01T14:12:03;8.50;99.90
52869;DHT22;39100;53.480;6.158;2023-04-01T14:17:13;8.40;99.90
52869;DHT22;39100;53.480;6.158;2023-04-01T14:32:39;8.20;99.90
52869;DHT22;39100;53.480;6.158;2023-04-01T14:40:33;8.20;99.90
52869;DHT22;39100;53.480;6.158;2023-04-01T14:50:41;8.10;99.90
52869;DHT22;39100;53.480;6.158;2023-04-01T14:53:29;8.10;99.90
52869;DHT22;39100;53.480;6.158;2023-04-01T14:55:56;8.10;99.90
52869;DHT22;39100;53.480;6.158;2023-04-01T14:58:23;8.10;99.90
52869;DHT22;39100;53.480;6.158;2023-04-01T15:01:10;8.00;99.90
52869;DHT22;39100;53.480;6.158;2023-04-01T15:04:02;8.00;99.90
52869;DHT22;39100;53.480;6.158;2023-04-01T15:06:35;7.90;99.90
52869;DHT22;39100;53.480;6.158;2023-04-01T15:09:07;8.00;99.90
52869;DHT22;39100;53.480;6.158;2023-04-01T15:11:56;7.90;99.90
52869;DHT22;39100;53.480;6.158;2023-04-01T15:17:16;7.90;99.90
52869;DHT22;39100;53.480;6.158;2023-04-01T15:19:59;7.90;99.90
52869;DHT22;39100;53.480;6.158;2023-04-01T15:25:05;7.90;99.90
52869;DHT22;39100;53.480;6.158;2023-04-01T15:27:42;7.80;99.90
52869;DHT22;39100;53.480;6.158;2023-04-01T15:30:27;7.80;99.90
52869;DHT22;39100;53.480;6.158;2023-04-01T15:35:37;7.80;99.90
52869;DHT22;39100;53.480;6.158;2023-04-01T15:38:06;7.80;99.90
52869;DHT22;39100;53.480;6.158;2023-04-01T15:40:45;7.70;99.90
52869;DHT22;39100;53.480;6.158;2023-04-01T15:48:22;7.60;99.90
52869;DHT22;39100;53.480;6.158;2023-04-01T15:50:54;7.70;99.90
52869;DHT22;39100;53.480;6.158;2023-04-01T15:56:13;7.60;99.90
52869;DHT22;39100;53.480;6.158;2023-04-01T15:58:48;7.60;99.90
52869;DHT22;39100;53.480;6.158;2023-04-01T16:01:22;7.60;99.90
52869;DHT22;39100;53.480;6.158;2023-04-01T16:04:06;7.50;99.90
52869;DHT22;39100;53.480;6.158;2023-04-01T16:11:47;7.50;99.90
52869;DHT22;39100;53.480;6.158;2023-04-01T16:19:19;7.40;99.90
52869;DHT22;39100;53.480;6.158;2023-04-01T16:29:48;7.40;99.90
52869;DHT22;39100;53.480;6.158;2023-04-01T16:35:04;7.40;99.90
52869;DHT22;39100;53.480;6.158;2023-04-01T16:37:39;7.40;99.90
52869;DHT22;39100;53.480;6.158;2023-04-01T16:40:13;7.40;99.90
52869;DHT22;39100;53.480;6.158;2023-04-01T16:42:51;7.30;99.90
52869;DHT22;39100;53.480;6.158;2023-04-01T16:48:14;7.30;99.90
52869;DHT22;39100;53.480;6.158;2023-04-01T16:51:00;7.30;99.90
52869;DHT22;39100;53.480;6.158;2023-04-01T16:53:44;7.30;99.90
52869;DHT22;39100;53.480;6.158;2023-04-01T16:56:20;7.40;99.90
52869;DHT22;39100;53.480;6.158;2023-04-01T17:04:07;7.30;99.90
52869;DHT22;39100;53.480;6.158;2023-04-01T17:06:47;7.30;99.90
52869;DHT22;39100;53.480;6.158;2023-04-01T17:12:14;7.30;99.90
52869;DHT22;39100;53.480;6.158;2023-04-01T17:17:23;7.20;99.90
52869;DHT22;39100;53.480;6.158;2023-04-01T17:22:40;7.10;99.90
52869;DHT22;39100;53.480;6.158;2023-04-01T17:45:11;7.10;99.90
52869;DHT22;39100;53.480;6.158;2023-04-01T17:50:58;7.10;99.90
52869;DHT22;39100;53.480;6.158;2023-04-01T17:58:17;7.10;99.90
52869;DHT22;39100;53.480;6.158;2023-04-01T18:03:30;7.10;99.90
52869;DHT22;39100;53.480;6.158;2023-04-01T18:06:17;7.10;99.90
52869;DHT22;39100;53.480;6.158;2023-04-01T18:08:52;7.00;99.90
52869;DHT22;39100;53.480;6.158;2023-04-01T18:21:46;6.90;99.90
52869;DHT22;39100;53.480;6.158;2023-04-01T18:24:27;6.90;99.90
52869;DHT22;39100;53.480;6.158;2023-04-01T18:27:04;6.90;99.90
52869;DHT22;39100;53.480;6.158;2023-04-01T18:32:46;6.90;99.90
52869;DHT22;39100;53.480;6.158;2023-04-01T18:37:43;6.90;99.90
52869;DHT22;39100;53.480;6.158;2023-04-01T18:40:20;6.90;99.90
52869;DHT22;39100;53.480;6.158;2023-04-01T18:43:01;6.90;99.90
52869;DHT22;39100;53.480;6.158;2023-04-01T18:48:03;6.80;99.90
52869;DHT22;39100;53.480;6.158;2023-04-01T18:50:48;6.80;99.90
52869;DHT22;39100;53.480;6.158;2023-04-01T18:53:22;6.80;99.90
52869;DHT22;39100;53.480;6.158;2023-04-01T18:55:53;6.80;99.90
52869;DHT22;39100;53.480;6.158;2023-04-01T18:58:45;6.80;99.90
52869;DHT22;39100;53.480;6.158;2023-04-01T19:06:17;6.80;99.90
52869;DHT22;39100;53.480;6.158;2023-04-01T19:08:45;6.80;99.90
52869;DHT22;39100;53.480;6.158;2023-04-01T19:16:15;6.60;99.90
52869;DHT22;39100;53.480;6.158;2023-04-01T19:18:56;6.70;99.90
52869;DHT22;39100;53.480;6.158;2023-04-01T19:21:37;6.70;99.90
52869;DHT22;39100;53.480;6.158;2023-04-01T19:26:32;6.70;99.90
52869;DHT22;39100;53.480;6.158;2023-04-01T19:29:02;6.70;99.90
52869;DHT22;39100;53.480;6.158;2023-04-01T19:36:53;6.60;99.90
52869;DHT22;39100;53.480;6.158;2023-04-01T19:39:25;6.60;99.90
52869;DHT22;39100;53.480;6.158;2023-04-01T19:47:00;6.60;99.90
52869;DHT22;39100;53.480;6.158;2023-04-01T19:52:14;6.60;99.90
52869;DHT22;39100;53.480;6.158;2023-04-01T19:54:50;6.40;99.90
52869;DHT22;39100;53.480;6.158;2023-04-01T19:57:24;6.50;99.90
52869;DHT22;39100;53.480;6.158;2023-04-01T19:59:54;6.40;99.90
52869;DHT22;39100;53.480;6.158;2023-04-01T20:07:44;6.50;99.90
52869;DHT22;39100;53.480;6.158;2023-04-01T20:15:30;6.40;99.90
52869;DHT22;39100;53.480;6.158;2023-04-01T20:17:52;6.40;99.90
52869;DHT22;39100;53.480;6.158;2023-04-01T20:20:23;6.40;99.90
52869;DHT22;39100;53.480;6.158;2023-04-01T20:25:16;6.40;99.90
52869;DHT22;39100;53.480;6.158;2023-04-01T20:27:56;6.40;99.90
52869;DHT22;39100;53.480;6.158;2023-04-01T20:38:13;6.30;99.90
52869;DHT22;39100;53.480;6.158;2023-04-01T20:40:47;6.30;99.90
52869;DHT22;39100;53.480;6.158;2023-04-01T20:45:58;6.30;99.90
52869;DHT22;39100;53.480;6.158;2023-04-01T20:51:26;6.30;99.90
52869;DHT22;39100;53.480;6.158;2023-04-01T20:53:58;6.30;99.90
52869;DHT22;39100;53.480;6.158;2023-04-01T21:01:47;6.30;99.90
52869;DHT22;39100;53.480;6.158;2023-04-01T21:04:27;6.30;99.90
52869;DHT22;39100;53.480;6.158;2023-04-01T21:09:41;6.20;99.90
52869;DHT22;39100;53.480;6.158;2023-04-01T21:17:12;6.10;99.90
52869;DHT22;39100;53.480;6.158;2023-04-01T21:22:35;6.00;99.90
52869;DHT22;39100;53.480;6.158;2023-04-01T21:25:03;6.00;99.90
52869;DHT22;39100;53.480;6.158;2023-04-01T21:35:48;5.80;99.90
52869;DHT22;39100;53.480;6.158;2023-04-01T21:41:02;5.70;99.90
52869;DHT22;39100;53.480;6.158;2023-04-01T21:46:01;5.60;99.90
52869;DHT22;39100;53.480;6.158;2023-04-01T21:48:45;5.60;99.90
52869;DHT22;39100;53.480;6.158;2023-04-01T21:56:47;5.50;99.90
52869;DHT22;39100;53.480;6.158;2023-04-01T22:02:03;5.50;99.90
52869;DHT22;39100;53.480;6.158;2023-04-01T22:07:21;5.40;99.90
52869;DHT22;39100;53.480;6.158;2023-04-01T22:09:52;5.40;99.90
52869;DHT22;39100;53.480;6.158;2023-04-01T22:12:20;5.40;99.90
52869;DHT22;39100;53.480;6.158;2023-04-01T22:25:49;5.20;99.90
52869;DHT22;39100;53.480;6.158;2023-04-01T22:32:45;5.20;99.90
52869;DHT22;39100;53.480;6.158;2023-04-01T22:35:18;5.10;99.90
52869;DHT22;39100;53.480;6.158;2023-04-01T22:40:30;5.10;99.90
52869;DHT22;39100;53.480;6.158;2023-04-01T22:43:00;5.10;99.90
52869;DHT22;39100;53.480;6.158;2023-04-01T22:51:02;5.00;99.90
52869;DHT22;39100;53.480;6.158;2023-04-01T22:53:43;5.10;99.90
52869;DHT22;39100;53.480;6.158;2023-04-01T22:56:15;5.00;99.90
52869;DHT22;39100;53.480;6.158;2023-04-01T22:58:42;5.00;99.90
52869;DHT22;39100;53.480;6.158;2023-04-01T23:01:12;5.00;99.90
52869;DHT22;39100;53.480;6.158;2023-04-01T23:03:39;5.00;99.90
52869;DHT22;39100;53.480;6.158;2023-04-01T23:06:05;4.90;99.90
52869;DHT22;39100;53.480;6.158;2023-04-01T23:11:39;4.90;99.90
52869;DHT22;39100;53.480;6.158;2023-04-01T23:16:41;4.80;99.90
52869;DHT22;39100;53.480;6.158;2023-04-01T23:29:16;4.80;99.90
52869;DHT22;39100;53.480;6.158;2023-04-01T23:31:43;4.70;99.90
52869;DHT22;39100;53.480;6.158;2023-04-01T23:36:37;4.60;99.90
52869;DHT22;39100;53.480;6.158;2023-04-01T23:39:04;4.60;99.90
52869;DHT22;39100;53.480;6.158;2023-04-01T23:41:30;4.60;99.90
52869;DHT22;39100;53.480;6.158;2023-04-01T23:44:05;4.60;99.90
52869;DHT22;39100;53.480;6.158;2023-04-01T23:46:33;4.60;99.90
52869;DHT22;39100;53.480;6.158;2023-04-01T23:48:59;4.60;99.90
52869;DHT22;39100;53.480;6.158;2023-04-01T23:51:26;4.60;99.90
52869;DHT22;39100;53.480;6.158;2023-04-01T23:54:03;4.60;99.90
52869;DHT22;39100;53.480;6.158;2023-04-01T23:56:48;4.60;99.90
52869;DHT22;39100;53.480;6.158;2023-04-01T23:59:16;4.50;99.90
